Time;durP1;ratioP1;P1;durP2;ratioP2;P2;SDS_P1;SDS_P2;PMS_P1;PMS_P2;Temp;Humidity;BMP_temperature;BMP_pressure;BME280_temperature;BME280_humidity;BME280_pressure;Samples;Min_cycle;Max_cycle;Signal;HPM_P1;HPM_P2
2021/06/10 00:00:12;;;;;;;4.47;3.25;;;;;;;;;;4367030;32;20651;-56
2021/06/10 00:02:38;;;;;;;22.58;3.90;;;;;;;;;;4356916;32;20757;-56
2021/06/10 00:05:06;;;;;;;5.18;3.37;;;;;;;;;;4360530;32;20249;-56
2021/06/10 00:07:32;;;;;;;6.45;3.67;;;;;;;;;;4361645;32;20345;-56
2021/06/10 00:09:57;;;;;;;8.85;3.60;;;;;;;;;;4363038;32;20214;-57
2021/06/10 00:12:23;;;;;;;5.62;3.87;;;;;;;;;;4368950;32;20615;-56
2021/06/10 00:14:49;;;;;;;4.35;3.20;;;;;;;;;;4362800;32;20252;-56
2021/06/10 00:17:15;;;;;;;6.00;3.47;;;;;;;;;;4358864;32;20226;-56
2021/06/10 00:19:41;;;;;;;15.30;3.50;;;;;;;;;;4362101;32;20634;-56
2021/06/10 00:22:06;;;;;;;7.90;3.90;;;;;;;;;;4368811;32;20371;-57
2021/06/10 00:24:32;;;;;;;6.22;3.47;;;;;;;;;;4362980;32;20330;-57
2021/06/10 00:26:57;;;;;;;4.75;4.00;;;;;;;;;;4366822;32;20705;-58
2021/06/10 00:29:23;;;;;;;6.55;3.05;;;;;;;;;;4362178;32;20279;-57
2021/06/10 00:31:49;;;;;;;6.12;3.67;;;;;;;;;;4362134;32;20283;-57
2021/06/10 00:34:15;;;;;;;4.80;3.17;;;;;;;;;;4366607;32;20202;-56
2021/06/10 00:36:42;;;;;;;4.28;3.62;;;;;;;;;;4362635;32;20211;-57
2021/06/10 00:39:07;;;;;;;5.30;3.58;;;;;;;;;;4366808;32;20313;-56
2021/06/10 00:41:34;;;;;;;4.97;3.22;;;;;;;;;;4362654;32;20615;-57
2021/06/10 00:44:01;;;;;;;8.32;4.18;;;;;;;;;;4359876;32;20230;-58
2021/06/10 00:46:27;;;;;;;10.73;3.85;;;;;;;;;;4363098;32;20432;-57
2021/06/10 00:48:53;;;;;;;15.32;5.55;;;;;;;;;;4366190;32;20226;-57
2021/06/10 00:51:19;;;;;;;11.35;5.95;;;;;;;;;;4357865;32;20248;-57
2021/06/10 00:53:45;;;;;;;11.57;5.45;;;;;;;;;;4366877;32;20237;-57
2021/06/10 00:56:11;;;;;;;8.95;5.35;;;;;;;;;;4363401;32;20234;-57
2021/06/10 00:58:37;;;;;;;10.10;4.82;;;;;;;;;;4364473;32;20718;-58
2021/06/10 01:01:03;;;;;;;7.18;5.07;;;;;;;;;;4362003;32;20309;-57
2021/06/10 01:03:29;;;;;;;17.90;6.03;;;;;;;;;;4365731;32;20694;-57
2021/06/10 01:06:00;;;;;;;11.23;5.15;;;;;;;;;;4359995;32;20372;-56
2021/06/10 01:08:49;;;;;;;6.68;4.20;;;;;;;;;;4357705;32;20637;-56
2021/06/10 01:11:30;;;;;;;16.58;6.70;;;;;;;;;;4353836;32;20459;-56
2021/06/10 01:14:30;;;;;;;8.98;5.10;;;;;;;;;;4358374;32;20291;-56
2021/06/10 01:16:58;;;;;;;8.85;4.75;;;;;;;;;;4365712;32;20288;-56
2021/06/10 01:19:39;;;;;;;8.98;5.00;;;;;;;;;;4367198;32;20253;-56
2021/06/10 01:22:30;;;;;;;6.50;4.82;;;;;;;;;;4356682;32;20304;-57
2021/06/10 01:25:08;;;;;;;7.47;4.30;;;;;;;;;;4348842;32;20236;-57
2021/06/10 01:27:42;;;;;;;7.78;3.62;;;;;;;;;;4367658;32;20268;-57
2021/06/10 01:30:18;;;;;;;4.93;3.30;;;;;;;;;;4362477;32;20237;-57
2021/06/10 01:32:57;;;;;;;10.73;4.10;;;;;;;;;;4367686;32;20810;-57
2021/06/10 01:35:24;;;;;;;9.73;3.70;;;;;;;;;;4366670;32;20560;-57
2021/06/10 01:37:51;;;;;;;4.65;3.80;;;;;;;;;;4369247;32;20225;-57
2021/06/10 01:40:20;;;;;;;8.45;4.28;;;;;;;;;;4359068;32;20325;-58
2021/06/10 01:42:46;;;;;;;6.75;3.50;;;;;;;;;;4363943;32;20244;-56
2021/06/10 01:45:13;;;;;;;3.78;3.33;;;;;;;;;;4359602;32;20298;-56
2021/06/10 01:47:42;;;;;;;10.50;4.43;;;;;;;;;;4368838;32;20260;-56
2021/06/10 01:50:09;;;;;;;9.35;3.90;;;;;;;;;;4364367;32;20639;-57
2021/06/10 01:52:36;;;;;;;7.95;4.10;;;;;;;;;;4362926;32;20353;-56
2021/06/10 01:55:05;;;;;;;3.95;3.47;;;;;;;;;;4361846;32;20313;-57
2021/06/10 01:57:31;;;;;;;6.60;3.45;;;;;;;;;;4370442;32;20347;-56
2021/06/10 01:59:57;;;;;;;4.50;3.42;;;;;;;;;;4359927;32;20344;-57
2021/06/10 02:02:23;;;;;;;7.57;4.22;;;;;;;;;;4368049;32;20395;-56
2021/06/10 02:04:49;;;;;;;8.60;3.83;;;;;;;;;;4365571;32;20230;-56
2021/06/10 02:07:15;;;;;;;5.25;3.70;;;;;;;;;;4367676;32;20264;-55
2021/06/10 02:09:42;;;;;;;11.35;4.12;;;;;;;;;;4360618;32;20628;-55
2021/06/10 02:12:08;;;;;;;7.20;3.72;;;;;;;;;;4364308;32;20296;-55
2021/06/10 02:14:35;;;;;;;8.00;4.05;;;;;;;;;;4364173;32;20283;-56
2021/06/10 02:17:01;;;;;;;5.70;3.97;;;;;;;;;;4361517;32;20325;-57
2021/06/10 02:19:26;;;;;;;6.65;4.37;;;;;;;;;;4364425;32;20447;-56
2021/06/10 02:21:52;;;;;;;15.07;8.50;;;;;;;;;;4362573;32;20614;-56
2021/06/10 02:24:17;;;;;;;22.65;9.98;;;;;;;;;;4368667;32;20615;-55
2021/06/10 02:26:44;;;;;;;19.85;9.50;;;;;;;;;;4360982;32;20227;-55
2021/06/10 02:29:10;;;;;;;15.18;7.35;;;;;;;;;;4358353;32;20214;-55
2021/06/10 02:31:36;;;;;;;14.13;7.95;;;;;;;;;;4358420;32;20704;-56
2021/06/10 02:34:03;;;;;;;17.85;8.75;;;;;;;;;;4361112;32;20314;-57
2021/06/10 02:36:29;;;;;;;14.50;7.95;;;;;;;;;;4356398;32;20293;-57
2021/06/10 02:38:59;;;;;;;17.87;8.82;;;;;;;;;;4357837;32;20241;-57
2021/06/10 02:41:27;;;;;;;12.07;7.70;;;;;;;;;;4363551;32;20285;-57
2021/06/10 02:43:57;;;;;;;9.07;6.43;;;;;;;;;;4360008;32;20281;-57
2021/06/10 02:46:22;;;;;;;8.80;6.03;;;;;;;;;;4356732;32;20332;-57
2021/06/10 02:48:51;;;;;;;5.87;5.12;;;;;;;;;;4363414;32;20226;-57
2021/06/10 02:51:18;;;;;;;13.15;5.60;;;;;;;;;;4363008;32;20362;-54
2021/06/10 02:53:45;;;;;;;8.55;4.78;;;;;;;;;;4367496;32;20243;-57
2021/06/10 02:56:14;;;;;;;6.43;4.85;;;;;;;;;;4361263;32;20651;-57
2021/06/10 02:58:40;;;;;;;8.77;4.68;;;;;;;;;;4359594;32;20250;-55
2021/06/10 03:01:08;;;;;;;10.35;5.35;;;;;;;;;;4362160;32;20256;-56
2021/06/10 03:03:36;;;;;;;7.37;4.82;;;;;;;;;;4361696;32;20207;-56
2021/06/10 03:06:05;;;;;;;7.22;5.07;;;;;;;;;;4364049;32;20301;-56
2021/06/10 03:08:31;;;;;;;7.07;4.65;;;;;;;;;;4365250;32;20698;-56
2021/06/10 03:11:00;;;;;;;7.53;5.47;;;;;;;;;;4366995;32;20731;-56
2021/06/10 03:13:28;;;;;;;9.02;5.00;;;;;;;;;;4371093;32;20261;-56
2021/06/10 03:15:54;;;;;;;7.15;5.30;;;;;;;;;;4362215;32;20229;-56
2021/06/10 03:18:21;;;;;;;13.27;6.12;;;;;;;;;;4365547;32;20289;-56
2021/06/10 03:20:47;;;;;;;8.25;5.05;;;;;;;;;;4359151;32;20233;-56
2021/06/10 03:23:13;;;;;;;10.18;5.25;;;;;;;;;;4363550;32;20235;-55
2021/06/10 03:25:40;;;;;;;6.80;4.35;;;;;;;;;;4360006;32;20258;-56
2021/06/10 03:28:06;;;;;;;7.35;4.85;;;;;;;;;;4372154;32;20333;-56
2021/06/10 03:30:34;;;;;;;5.62;4.32;;;;;;;;;;4363929;32;20332;-57
2021/06/10 03:33:01;;;;;;;6.75;4.90;;;;;;;;;;4372621;32;20226;-57
2021/06/10 03:35:27;;;;;;;8.75;4.87;;;;;;;;;;4366757;32;20378;-57
2021/06/10 03:37:54;;;;;;;14.18;6.12;;;;;;;;;;4368368;32;20655;-58
2021/06/10 03:40:19;;;;;;;5.12;4.62;;;;;;;;;;4366315;32;20283;-57
2021/06/10 03:42:45;;;;;;;6.45;4.50;;;;;;;;;;4370199;32;20312;-57
2021/06/10 03:45:12;;;;;;;11.27;5.28;;;;;;;;;;4364530;32;20229;-57
2021/06/10 03:47:38;;;;;;;15.13;6.32;;;;;;;;;;4357781;32;20227;-57
2021/06/10 03:50:07;;;;;;;11.45;5.25;;;;;;;;;;4361421;32;20297;-57
2021/06/10 03:52:33;;;;;;;8.32;5.15;;;;;;;;;;4358217;32;20261;-57
2021/06/10 03:55:00;;;;;;;13.48;5.93;;;;;;;;;;4361332;32;20243;-57
2021/06/10 03:57:26;;;;;;;11.57;5.10;;;;;;;;;;4360674;32;20218;-56
2021/06/10 03:59:52;;;;;;;9.88;4.35;;;;;;;;;;4362864;32;20379;-56
2021/06/10 04:02:17;;;;;;;11.23;4.65;;;;;;;;;;4368472;32;20264;-57
2021/06/10 04:04:43;;;;;;;7.32;4.72;;;;;;;;;;4360229;32;20211;-57
2021/06/10 04:07:09;;;;;;;10.07;4.65;;;;;;;;;;4359843;32;20218;-57
2021/06/10 04:09:34;;;;;;;7.37;4.32;;;;;;;;;;4362951;32;20230;-58
2021/06/10 04:12:00;;;;;;;9.88;4.22;;;;;;;;;;4365474;32;20266;-57
2021/06/10 04:14:25;;;;;;;12.43;5.22;;;;;;;;;;4364824;32;20241;-57
2021/06/10 04:16:50;;;;;;;6.72;4.55;;;;;;;;;;4362180;32;20249;-57
2021/06/10 04:19:16;;;;;;;8.52;4.62;;;;;;;;;;4367519;32;20797;-58
2021/06/10 04:21:41;;;;;;;11.05;5.50;;;;;;;;;;4364648;32;20624;-56
2021/06/10 04:24:07;;;;;;;15.35;4.93;;;;;;;;;;4363789;32;20249;-56
2021/06/10 04:26:33;;;;;;;6.78;4.25;;;;;;;;;;4359262;32;20230;-55
2021/06/10 04:28:58;;;;;;;9.25;5.10;;;;;;;;;;4359213;32;20515;-55
2021/06/10 04:31:23;;;;;;;7.32;5.28;;;;;;;;;;4362217;32;20639;-55
2021/06/10 04:33:49;;;;;;;8.35;4.55;;;;;;;;;;4367446;32;20246;-58
2021/06/10 04:36:16;;;;;;;9.43;5.90;;;;;;;;;;4371170;32;20241;-56
2021/06/10 04:38:42;;;;;;;6.35;4.70;;;;;;;;;;4374546;32;20202;-58
2021/06/10 04:41:08;;;;;;;6.72;5.40;;;;;;;;;;4364116;32;20309;-58
2021/06/10 04:43:35;;;;;;;14.13;6.12;;;;;;;;;;4365091;32;20219;-57
2021/06/10 04:46:01;;;;;;;9.95;5.68;;;;;;;;;;4358080;32;20207;-57
2021/06/10 04:48:27;;;;;;;11.50;6.35;;;;;;;;;;4357543;32;20370;-57
2021/06/10 04:50:53;;;;;;;12.88;4.60;;;;;;;;;;4362631;32;20478;-58
2021/06/10 04:53:19;;;;;;;9.50;5.62;;;;;;;;;;4367098;32;20532;-57
2021/06/10 04:55:45;;;;;;;7.10;4.70;;;;;;;;;;4358921;32;20214;-56
2021/06/10 04:58:11;;;;;;;10.20;4.78;;;;;;;;;;4365843;32;20796;-56
2021/06/10 05:00:38;;;;;;;17.10;4.62;;;;;;;;;;4363424;32;20859;-59
2021/06/10 05:03:05;;;;;;;5.60;3.78;;;;;;;;;;4366661;32;20227;-56
2021/06/10 05:05:30;;;;;;;13.35;4.57;;;;;;;;;;4358594;32;20223;-57
2021/06/10 05:07:56;;;;;;;10.60;4.93;;;;;;;;;;4365704;32;20781;-56
2021/06/10 05:10:21;;;;;;;12.95;5.37;;;;;;;;;;4358602;32;20349;-56
2021/06/10 05:12:47;;;;;;;8.02;5.35;;;;;;;;;;4363766;32;20328;-56
2021/06/10 05:15:13;;;;;;;9.77;4.90;;;;;;;;;;4360803;32;20216;-56
2021/06/10 05:17:38;;;;;;;27.02;5.22;;;;;;;;;;4356460;32;20222;-56
2021/06/10 05:20:04;;;;;;;10.55;5.12;;;;;;;;;;4360874;32;20231;-56
2021/06/10 05:22:30;;;;;;;10.05;4.82;;;;;;;;;;4366047;32;20225;-57
2021/06/10 05:24:55;;;;;;;9.00;4.68;;;;;;;;;;4373482;32;20335;-63
2021/06/10 05:27:21;;;;;;;9.85;5.12;;;;;;;;;;4357746;32;20355;-56
2021/06/10 05:29:46;;;;;;;6.55;4.57;;;;;;;;;;4364388;32;20352;-56
2021/06/10 05:32:12;;;;;;;13.70;5.10;;;;;;;;;;4364189;32;20323;-57
2021/06/10 05:34:37;;;;;;;13.48;5.53;;;;;;;;;;4368182;32;20233;-57
2021/06/10 05:37:03;;;;;;;11.32;5.15;;;;;;;;;;4356599;32;20226;-57
2021/06/10 05:39:29;;;;;;;5.37;4.47;;;;;;;;;;4355815;32;20333;-57
2021/06/10 05:41:56;;;;;;;10.63;4.87;;;;;;;;;;4354318;32;20739;-57
2021/06/10 05:44:21;;;;;;;6.75;5.12;;;;;;;;;;4357881;32;20333;-57
2021/06/10 05:46:48;;;;;;;13.00;4.68;;;;;;;;;;4366567;32;20344;-58
2021/06/10 05:49:15;;;;;;;15.35;5.70;;;;;;;;;;4364888;32;20219;-58
2021/06/10 05:51:40;;;;;;;10.68;5.57;;;;;;;;;;4361359;32;20701;-57
2021/06/10 05:54:06;;;;;;;11.68;5.37;;;;;;;;;;4360150;32;20394;-57
2021/06/10 05:56:31;;;;;;;11.40;5.28;;;;;;;;;;4355986;32;20673;-57
2021/06/10 05:58:57;;;;;;;8.23;4.72;;;;;;;;;;4362894;32;20364;-57
2021/06/10 06:01:22;;;;;;;14.50;5.82;;;;;;;;;;4374804;32;20242;-58
2021/06/10 06:03:48;;;;;;;9.55;5.82;;;;;;;;;;4357294;32;20210;-58
2021/06/10 06:06:17;;;;;;;16.55;6.35;;;;;;;;;;4354995;32;20256;-57
2021/06/10 06:08:43;;;;;;;10.10;5.87;;;;;;;;;;4356188;32;20635;-58
2021/06/10 06:11:08;;;;;;;7.95;5.18;;;;;;;;;;4363373;32;20305;-57
2021/06/10 06:16:09;;;;;;;8.10;5.22;;;;;;;;;;4362325;32;20218;-58
2021/06/10 06:18:36;;;;;;;13.00;5.53;;;;;;;;;;4362188;32;20335;-58
2021/06/10 06:21:02;;;;;;;13.23;6.12;;;;;;;;;;4368841;32;20226;-58
2021/06/10 06:23:29;;;;;;;8.85;4.85;;;;;;;;;;4361448;32;20694;-58
2021/06/10 06:25:55;;;;;;;19.33;7.12;;;;;;;;;;4355097;32;20304;-58
2021/06/10 06:28:20;;;;;;;9.57;6.25;;;;;;;;;;4357091;32;20264;-58
2021/06/10 06:30:46;;;;;;;7.18;4.85;;;;;;;;;;4359918;32;20262;-58
2021/06/10 06:33:11;;;;;;;16.05;6.28;;;;;;;;;;4361744;32;20624;-58
2021/06/10 06:35:41;;;;;;;11.32;5.60;;;;;;;;;;4361896;32;20333;-58
2021/06/10 06:38:06;;;;;;;11.95;5.97;;;;;;;;;;4359499;32;20258;-58
2021/06/10 06:40:32;;;;;;;11.98;5.22;;;;;;;;;;4360215;32;20688;-56
2021/06/10 06:42:57;;;;;;;7.50;4.80;;;;;;;;;;4356915;32;20791;-57
2021/06/10 06:45:23;;;;;;;8.88;4.68;;;;;;;;;;4366416;32;20369;-57
2021/06/10 06:47:48;;;;;;;8.20;4.62;;;;;;;;;;4361560;32;20261;-57
2021/06/10 06:50:14;;;;;;;9.02;4.60;;;;;;;;;;4360108;32;20245;-57
2021/06/10 06:52:40;;;;;;;9.75;5.25;;;;;;;;;;4364634;32;20268;-57
2021/06/10 06:55:06;;;;;;;14.07;5.37;;;;;;;;;;4358960;32;20276;-57
2021/06/10 06:57:31;;;;;;;10.27;6.25;;;;;;;;;;4359834;32;20627;-57
2021/06/10 06:59:57;;;;;;;8.82;4.93;;;;;;;;;;4363736;32;20344;-57
2021/06/10 07:02:23;;;;;;;9.77;5.40;;;;;;;;;;4365755;32;20341;-57
2021/06/10 07:04:48;;;;;;;10.13;5.28;;;;;;;;;;4364402;32;20264;-57
2021/06/10 07:07:15;;;;;;;10.75;5.22;;;;;;;;;;4364603;32;20222;-57
2021/06/10 07:09:41;;;;;;;9.88;5.05;;;;;;;;;;4365966;32;20329;-57
2021/06/10 07:12:07;;;;;;;9.85;4.87;;;;;;;;;;4364555;32;20284;-58
2021/06/10 07:14:33;;;;;;;10.13;5.82;;;;;;;;;;4374381;32;20325;-57
2021/06/10 07:16:59;;;;;;;8.15;5.12;;;;;;;;;;4361945;32;20563;-57
2021/06/10 07:19:24;;;;;;;8.07;5.20;;;;;;;;;;4359156;32;20759;-57
2021/06/10 07:21:51;;;;;;;12.57;5.10;;;;;;;;;;4362432;32;20253;-57
2021/06/10 07:24:17;;;;;;;7.68;5.28;;;;;;;;;;4360194;32;20221;-57
2021/06/10 07:26:44;;;;;;;5.87;5.10;;;;;;;;;;4359486;32;20286;-57
2021/06/10 07:29:10;;;;;;;5.85;4.60;;;;;;;;;;4361653;32;20250;-57
2021/06/10 07:31:36;;;;;;;11.23;5.12;;;;;;;;;;4362655;32;20249;-57
2021/06/10 07:34:04;;;;;;;11.18;4.82;;;;;;;;;;4365901;32;20933;-57
2021/06/10 07:36:31;;;;;;;12.30;4.43;;;;;;;;;;4361650;32;20337;-58
2021/06/10 07:38:56;;;;;;;61.72;9.23;;;;;;;;;;4358372;32;20685;-58
2021/06/10 07:41:22;;;;;;;18.62;5.18;;;;;;;;;;4365690;32;20336;-57
2021/06/10 07:43:47;;;;;;;10.15;4.00;;;;;;;;;;4359611;32;20297;-57
2021/06/10 07:46:13;;;;;;;8.82;4.62;;;;;;;;;;4357101;32;20214;-57
2021/06/10 07:48:39;;;;;;;8.68;4.53;;;;;;;;;;4357832;32;20294;-56
2021/06/10 07:51:06;;;;;;;9.93;4.80;;;;;;;;;;4372028;32;20215;-57
2021/06/10 07:53:34;;;;;;;7.25;4.60;;;;;;;;;;4360141;32;20650;-57
2021/06/10 07:55:59;;;;;;;8.02;4.15;;;;;;;;;;4361527;32;20246;-56
2021/06/10 07:58:26;;;;;;;7.07;4.43;;;;;;;;;;4370563;32;20253;-57
2021/06/10 08:00:52;;;;;;;7.43;3.62;;;;;;;;;;4364559;32;20325;-57
2021/06/10 08:03:18;;;;;;;8.25;4.00;;;;;;;;;;4364102;32;20285;-57
2021/06/10 08:05:43;;;;;;;14.55;5.37;;;;;;;;;;4368063;32;20284;-58
2021/06/10 08:08:08;;;;;;;10.32;4.47;;;;;;;;;;4362222;32;20859;-57
2021/06/10 08:10:34;;;;;;;9.35;4.87;;;;;;;;;;4364451;32;20277;-58
2021/06/10 08:12:59;;;;;;;5.22;4.05;;;;;;;;;;4360767;32;20222;-58
2021/06/10 08:15:25;;;;;;;9.90;4.93;;;;;;;;;;4359385;32;20286;-58
2021/06/10 08:17:51;;;;;;;9.13;4.25;;;;;;;;;;4363823;32;20254;-57
2021/06/10 08:20:18;;;;;;;4.72;3.60;;;;;;;;;;4364782;32;20686;-58
2021/06/10 08:22:44;;;;;;;12.73;4.40;;;;;;;;;;4368373;32;20279;-58
2021/06/10 08:25:10;;;;;;;16.37;4.82;;;;;;;;;;4357704;32;20222;-57
2021/06/10 08:27:36;;;;;;;8.65;4.47;;;;;;;;;;4361192;32;20284;-57
2021/06/10 08:30:05;;;;;;;9.38;4.37;;;;;;;;;;4359102;32;20642;-57
2021/06/10 08:32:31;;;;;;;12.63;3.97;;;;;;;;;;4357847;32;20264;-57
2021/06/10 08:34:56;;;;;;;188.95;19.92;;;;;;;;;;4367890;32;20362;-58
2021/06/10 08:37:22;;;;;;;13.95;5.57;;;;;;;;;;4363486;32;20333;-58
2021/06/10 08:39:47;;;;;;;10.27;4.78;;;;;;;;;;4368856;32;20351;-57
2021/06/10 08:42:13;;;;;;;9.50;3.30;;;;;;;;;;4370182;32;20307;-57
2021/06/10 08:44:39;;;;;;;8.27;3.70;;;;;;;;;;4364047;32;20544;-58
2021/06/10 08:47:07;;;;;;;7.32;3.58;;;;;;;;;;4369950;32;20222;-59
2021/06/10 08:49:33;;;;;;;15.02;4.15;;;;;;;;;;4365837;32;20294;-57
2021/06/10 08:51:58;;;;;;;7.68;4.07;;;;;;;;;;4355398;32;20234;-57
2021/06/10 08:54:24;;;;;;;13.60;4.40;;;;;;;;;;4360338;32;20222;-57
2021/06/10 08:56:49;;;;;;;4.60;3.40;;;;;;;;;;4357625;32;20338;-58
2021/06/10 08:59:15;;;;;;;6.15;4.45;;;;;;;;;;4356551;32;20289;-58
2021/06/10 09:01:43;;;;;;;10.50;3.70;;;;;;;;;;4342239;32;20260;-58
2021/06/10 09:04:09;;;;;;;5.05;3.22;;;;;;;;;;4356214;32;20206;-58
2021/06/10 09:06:50;;;;;;;6.30;3.25;;;;;;;;;;4379498;32;20288;-57
2021/06/10 09:09:33;;;;;;;5.35;3.42;;;;;;;;;;4370182;32;20325;-58
2021/06/10 09:12:04;;;;;;;12.73;3.20;;;;;;;;;;4360969;32;20206;-57
2021/06/10 09:14:30;;;;;;;6.53;3.25;;;;;;;;;;4366255;32;20640;-57
2021/06/10 09:16:55;;;;;;;5.28;3.03;;;;;;;;;;4357949;32;20223;-57
2021/06/10 09:19:29;;;;;;;12.55;3.58;;;;;;;;;;4363023;32;20289;-57
2021/06/10 09:22:00;;;;;;;6.60;3.08;;;;;;;;;;4370816;32;20427;-57
2021/06/10 09:24:33;;;;;;;3.75;2.72;;;;;;;;;;4363133;32;20241;-58
2021/06/10 09:27:12;;;;;;;4.00;2.85;;;;;;;;;;4368525;32;20661;-57
2021/06/10 09:29:50;;;;;;;10.05;2.90;;;;;;;;;;4356840;32;20323;-57
2021/06/10 09:32:25;;;;;;;5.65;2.92;;;;;;;;;;4366278;32;20225;-58
2021/06/10 09:34:57;;;;;;;6.22;3.33;;;;;;;;;;4355632;32;20256;-58
2021/06/10 09:37:34;;;;;;;32.97;4.68;;;;;;;;;;4357016;32;20382;-57
2021/06/10 09:40:08;;;;;;;8.63;3.15;;;;;;;;;;4367830;32;20210;-58
2021/06/10 09:42:38;;;;;;;44.22;7.20;;;;;;;;;;4355580;32;20205;-58
2021/06/10 09:45:06;;;;;;;7.78;3.12;;;;;;;;;;4354291;32;20250;-58
2021/06/10 09:47:32;;;;;;;4.28;2.62;;;;;;;;;;4360219;32;20253;-57
2021/06/10 09:50:30;;;;;;;6.57;3.70;;;;;;;;;;4354034;32;20400;-57
2021/06/10 09:53:09;;;;;;;5.93;2.80;;;;;;;;;;4364509;32;20234;-58
2021/06/10 09:55:35;;;;;;;17.42;4.25;;;;;;;;;;4360620;32;20300;-58
2021/06/10 09:58:13;;;;;;;19.70;3.25;;;;;;;;;;4364074;32;20750;-58
2021/06/10 10:00:58;;;;;;;11.75;4.47;;;;;;;;;;4359063;32;20360;-58
2021/06/10 10:03:28;;;;;;;10.80;3.72;;;;;;;;;;4363809;32;20355;-59
2021/06/10 10:06:05;;;;;;;9.13;4.22;;;;;;;;;;4357659;32;20214;-59
2021/06/10 10:08:32;;;;;;;14.60;5.18;;;;;;;;;;4355443;32;20258;-59
2021/06/10 10:11:03;;;;;;;15.43;5.07;;;;;;;;;;4366375;32;20465;-59
2021/06/10 10:13:30;;;;;;;16.27;4.80;;;;;;;;;;4358885;32;20285;-59
2021/06/10 10:16:03;;;;;;;17.87;5.20;;;;;;;;;;4373115;32;20256;-58
2021/06/10 10:18:28;;;;;;;11.15;5.07;;;;;;;;;;4367276;32;20386;-58
2021/06/10 10:20:58;;;;;;;8.70;4.00;;;;;;;;;;4362548;32;20795;-59
2021/06/10 10:23:23;;;;;;;7.22;4.35;;;;;;;;;;4362133;32;20347;-60
2021/06/10 10:25:55;;;;;;;8.10;4.97;;;;;;;;;;4367404;32;20635;-60
2021/06/10 10:28:21;;;;;;;10.20;4.22;;;;;;;;;;4367368;32;20277;-59
2021/06/10 10:30:47;;;;;;;9.25;5.65;;;;;;;;;;4359508;32;20541;-59
2021/06/10 10:33:22;;;;;;;7.65;5.28;;;;;;;;;;4370708;32;20331;-60
2021/06/10 10:35:50;;;;;;;15.18;5.37;;;;;;;;;;4364414;32;20713;-60
2021/06/10 10:38:20;;;;;;;7.37;4.37;;;;;;;;;;4365383;32;20435;-60
2021/06/10 10:40:59;;;;;;;8.75;5.50;;;;;;;;;;4367445;32;20245;-61
2021/06/10 10:43:25;;;;;;;13.65;5.70;;;;;;;;;;4371965;32;20560;-59
2021/06/10 10:46:24;;;;;;;7.18;5.00;;;;;;;;;;4371133;32;20317;-60
2021/06/10 10:48:51;;;;;;;6.78;5.40;;;;;;;;;;4360863;32;20289;-60
2021/06/10 10:51:38;;;;;;;10.35;5.40;;;;;;;;;;4366417;32;20659;-60
2021/06/10 10:54:24;;;;;;;11.60;5.22;;;;;;;;;;4363150;32;20650;-60
2021/06/10 10:56:50;;;;;;;7.47;4.87;;;;;;;;;;4364556;32;20268;-60
2021/06/10 10:59:16;;;;;;;8.23;4.20;;;;;;;;;;4360401;32;20706;-60
2021/06/10 11:02:02;;;;;;;11.60;4.45;;;;;;;;;;4360816;32;20280;-60
2021/06/10 11:04:50;;;;;;;18.75;5.53;;;;;;;;;;4371553;32;20327;-60
2021/06/10 11:07:39;;;;;;;8.90;4.45;;;;;;;;;;4370550;32;20348;-60
2021/06/10 11:10:15;;;;;;;9.65;4.10;;;;;;;;;;4367008;32;20618;-59
2021/06/10 11:12:41;;;;;;;8.65;4.78;;;;;;;;;;4370915;32;20264;-59
2021/06/10 11:15:12;;;;;;;7.00;4.43;;;;;;;;;;4365330;32;20277;-59
2021/06/10 11:17:45;;;;;;;4.90;4.28;;;;;;;;;;4364526;32;20258;-60
2021/06/10 11:20:15;;;;;;;7.47;4.30;;;;;;;;;;4363855;32;20252;-60
2021/06/10 11:22:41;;;;;;;4.78;3.80;;;;;;;;;;4364063;32;20372;-60
2021/06/10 11:25:08;;;;;;;10.50;4.40;;;;;;;;;;4363660;32;20407;-60
2021/06/10 11:27:38;;;;;;;5.65;4.03;;;;;;;;;;4363839;32;20238;-59
2021/06/10 11:30:30;;;;;;;5.93;3.90;;;;;;;;;;4363883;32;20697;-60
2021/06/10 11:32:59;;;;;;;5.15;3.72;;;;;;;;;;4362807;32;20684;-57
2021/06/10 11:35:34;;;;;;;6.18;3.75;;;;;;;;;;4375165;32;20261;-58
2021/06/10 11:38:03;;;;;;;6.70;3.33;;;;;;;;;;4363199;32;20230;-58
2021/06/10 11:40:29;;;;;;;7.03;3.95;;;;;;;;;;4363119;32;21015;-58
2021/06/10 11:42:54;;;;;;;5.03;3.67;;;;;;;;;;4363340;32;20223;-58
2021/06/10 11:45:26;;;;;;;8.05;4.40;;;;;;;;;;4362256;32;20237;-57
2021/06/10 11:47:51;;;;;;;4.57;3.87;;;;;;;;;;4363463;32;20277;-57
2021/06/10 11:50:44;;;;;;;12.25;3.97;;;;;;;;;;4364965;32;20639;-57
2021/06/10 11:53:18;;;;;;;9.32;4.53;;;;;;;;;;4359107;32;20221;-58
2021/06/10 11:55:45;;;;;;;4.80;4.25;;;;;;;;;;4358319;32;20190;-60
2021/06/10 11:58:12;;;;;;;7.32;3.58;;;;;;;;;;4358566;32;20536;-58
2021/06/10 12:00:46;;;;;;;10.70;4.28;;;;;;;;;;4358777;32;20256;-59
2021/06/10 12:03:16;;;;;;;6.18;4.07;;;;;;;;;;4359186;32;20295;-58
2021/06/10 12:05:51;;;;;;;6.43;3.80;;;;;;;;;;4357375;32;20246;-58
2021/06/10 12:08:22;;;;;;;7.07;4.70;;;;;;;;;;4358627;32;20241;-58
2021/06/10 12:10:59;;;;;;;4.10;3.70;;;;;;;;;;4358717;32;20757;-58
2021/06/10 12:13:25;;;;;;;5.32;2.60;;;;;;;;;;4358791;32;20628;-58
2021/06/10 12:15:52;;;;;;;4.55;2.53;;;;;;;;;;4361609;32;20209;-57
2021/06/10 12:18:20;;;;;;;17.45;3.80;;;;;;;;;;4373110;32;20696;-58
2021/06/10 12:20:48;;;;;;;4.87;3.28;;;;;;;;;;4371916;32;20638;-59
2021/06/10 12:23:16;;;;;;;6.18;3.50;;;;;;;;;;4373331;32;20195;-58
2021/06/10 12:25:46;;;;;;;4.60;3.22;;;;;;;;;;4372222;32;20257;-60
2021/06/10 12:28:28;;;;;;;4.32;3.28;;;;;;;;;;4373511;32;20233;-60
2021/06/10 12:31:08;;;;;;;8.90;3.10;;;;;;;;;;4370394;32;20602;-60
2021/06/10 12:33:36;;;;;;;4.62;3.35;;;;;;;;;;4358254;32;20279;-60
2021/06/10 12:36:12;;;;;;;6.82;4.15;;;;;;;;;;4357717;32;20647;-60
2021/06/10 12:38:38;;;;;;;8.63;4.45;;;;;;;;;;4356819;32;20300;-60
2021/06/10 12:41:10;;;;;;;8.00;4.82;;;;;;;;;;4358199;32;20359;-59
2021/06/10 12:43:36;;;;;;;7.45;4.47;;;;;;;;;;4358650;32;20273;-59
2021/06/10 12:46:04;;;;;;;6.15;4.40;;;;;;;;;;4357102;32;20307;-60
2021/06/10 12:48:31;;;;;;;8.45;4.65;;;;;;;;;;4358806;32;20685;-60
2021/06/10 12:51:22;;;;;;;5.47;3.97;;;;;;;;;;4366754;32;20305;-60
2021/06/10 12:54:04;;;;;;;4.15;3.62;;;;;;;;;;4372880;32;20265;-61
2021/06/10 12:56:51;;;;;;;6.97;4.90;;;;;;;;;;4373045;32;20240;-61
2021/06/10 12:59:18;;;;;;;7.25;3.92;;;;;;;;;;4372637;32;20303;-61
2021/06/10 13:02:06;;;;;;;4.45;3.78;;;;;;;;;;4372831;32;20377;-61
2021/06/10 13:04:34;;;;;;;4.22;3.35;;;;;;;;;;4372977;32;20202;-60
2021/06/10 13:07:00;;;;;;;8.90;3.53;;;;;;;;;;4372866;32;20230;-60
2021/06/10 13:09:26;;;;;;;5.37;3.70;;;;;;;;;;4368418;32;20206;-60
2021/06/10 13:12:10;;;;;;;9.27;3.72;;;;;;;;;;4372811;32;20318;-61
2021/06/10 13:14:35;;;;;;;7.90;4.65;;;;;;;;;;4372843;32;20329;-61
2021/06/10 13:17:01;;;;;;;3.95;3.35;;;;;;;;;;4372488;32;20370;-59
2021/06/10 13:19:26;;;;;;;6.87;4.07;;;;;;;;;;4372398;32;20479;-59
2021/06/10 13:22:06;;;;;;;12.23;3.60;;;;;;;;;;4384099;32;20264;-60
2021/06/10 13:24:49;;;;;;;9.13;4.03;;;;;;;;;;4370985;32;20222;-60
2021/06/10 13:27:24;;;;;;;4.65;2.92;;;;;;;;;;4372544;32;20289;-59
2021/06/10 13:29:55;;;;;;;9.48;3.72;;;;;;;;;;4372206;32;20331;-61
2021/06/10 13:32:39;;;;;;;7.20;3.30;;;;;;;;;;4360381;32;20495;-60
2021/06/10 13:37:30;;;;;;;15.70;3.62;;;;;;;;;;4357466;32;20226;-60
2021/06/10 13:39:55;;;;;;;8.15;2.62;;;;;;;;;;4356794;32;20206;-60
2021/06/10 13:42:22;;;;;;;5.05;3.17;;;;;;;;;;4356972;32;20218;-59
2021/06/10 13:44:49;;;;;;;4.82;2.70;;;;;;;;;;4355006;32;20260;-60
2021/06/10 13:47:15;;;;;;;5.10;3.58;;;;;;;;;;4368604;32;20611;-60
2021/06/10 13:49:42;;;;;;;8.25;2.35;;;;;;;;;;4369774;32;20295;-60
2021/06/10 13:52:07;;;;;;;11.77;3.03;;;;;;;;;;4364304;32;20329;-59
2021/06/10 13:54:33;;;;;;;4.93;2.83;;;;;;;;;;4369941;32;20248;-59
2021/06/10 13:56:58;;;;;;;2.95;2.53;;;;;;;;;;4369757;32;20225;-60
2021/06/10 13:59:24;;;;;;;7.15;3.40;;;;;;;;;;4381148;32;20234;-60
2021/06/10 14:01:49;;;;;;;6.55;3.15;;;;;;;;;;4381566;32;20396;-60
2021/06/10 14:04:15;;;;;;;5.30;3.20;;;;;;;;;;4370041;32;20344;-60
2021/06/10 14:06:40;;;;;;;4.10;2.65;;;;;;;;;;4370006;32;20681;-60
2021/06/10 14:09:06;;;;;;;6.43;3.35;;;;;;;;;;4370102;32;20681;-60
2021/06/10 14:11:32;;;;;;;6.18;2.80;;;;;;;;;;4369709;32;20753;-61
2021/06/10 14:13:58;;;;;;;10.60;3.40;;;;;;;;;;4370623;32;20214;-60
2021/06/10 14:16:23;;;;;;;4.12;2.50;;;;;;;;;;4372246;32;20316;-60
2021/06/10 14:18:51;;;;;;;7.68;3.58;;;;;;;;;;4370638;32;20230;-60
2021/06/10 14:21:18;;;;;;;4.72;2.97;;;;;;;;;;4372277;32;20524;-60
2021/06/10 14:23:44;;;;;;;6.12;3.80;;;;;;;;;;4371788;32;20566;-60
2021/06/10 14:26:09;;;;;;;6.12;4.07;;;;;;;;;;4371618;32;20279;-60
2021/06/10 14:28:38;;;;;;;6.53;3.70;;;;;;;;;;4372186;32;20269;-59
2021/06/10 14:33:39;;;;;;;4.53;3.42;;;;;;;;;;4357133;33;20335;-59
2021/06/10 14:36:05;;;;;;;7.22;3.50;;;;;;;;;;4357486;33;20218;-59
2021/06/10 14:38:31;;;;;;;7.70;3.58;;;;;;;;;;4355981;32;20241;-59
2021/06/10 14:40:57;;;;;;;11.10;4.45;;;;;;;;;;4357238;33;20294;-60
2021/06/10 14:43:23;;;;;;;12.40;2.80;;;;;;;;;;4356744;33;20198;-59
2021/06/10 14:45:48;;;;;;;2.83;2.15;;;;;;;;;;4357110;33;20273;-59
2021/06/10 14:48:14;;;;;;;5.97;2.58;;;;;;;;;;4356454;33;20372;-60
2021/06/10 14:50:39;;;;;;;8.77;2.87;;;;;;;;;;4356008;33;20812;-60
2021/06/10 14:53:05;;;;;;;2.70;1.83;;;;;;;;;;4372728;32;20722;-60